Time;durP1;ratioP1;P1;durP2;ratioP2;P2;SDS_P1;SDS_P2;PMS_P1;PMS_P2;Temp;Humidity;BMP_temperature;BMP_pressure;BME280_temperature;BME280_humidity;BME280_pressure;Samples;Min_cycle;Max_cycle;Signal;HPM_P1;HPM_P2
2022/02/04 00:08:28;;;;;;;60.42;20.15;;;;;;;;;;5044208;28;22144;-59
2022/02/04 00:24:20;;;;;;;48.03;18.05;;;;;;;;;;5040065;28;20074;-58
2022/02/04 00:26:53;;;;;;;51.63;18.20;;;;;;;;;;5023792;28;20051;-59
2022/02/04 00:29:27;;;;;;;;;;;;;;;;;;5042861;28;20820;-59
2022/02/04 00:32:01;;;;;;;51.47;17.30;;;;;;;;;;5037692;28;20007;-59
2022/02/04 00:34:34;;;;;;;54.25;19.02;;;;;;;;;;5042603;28;20112;-59
2022/02/04 00:39:35;;;;;;;54.85;18.45;;;;;;;;;;5044294;28;20032;-59
2022/02/04 00:42:06;;;;;;;56.22;18.35;;;;;;;;;;5038893;28;20059;-59
2022/02/04 00:44:37;;;;;;;62.17;18.83;;;;;;;;;;5025829;28;20048;-60
2022/02/04 00:47:17;;;;;;;56.92;19.45;;;;;;;;;;5042440;28;20040;-58
2022/02/04 00:52:30;;;;;;;62.65;18.70;;;;;;;;;;5039766;28;20032;-60
2022/02/04 01:27:34;;;;;;;55.03;18.88;;;;;;;;;;5039716;28;20029;-60
2022/02/04 01:30:05;;;;;;;51.50;18.48;;;;;;;;;;5040186;28;20948;-60
2022/02/04 01:32:34;;;;;;;47.55;16.77;;;;;;;;;;5046190;28;20037;-60
2022/02/04 01:35:02;;;;;;;44.63;17.92;;;;;;;;;;5043759;28;20072;-60
2022/02/04 01:37:30;;;;;;;56.58;16.77;;;;;;;;;;5043453;28;20057;-60
2022/02/04 01:39:56;;;;;;;50.08;17.48;;;;;;;;;;5045789;28;20036;-59
2022/02/04 01:42:21;;;;;;;50.60;18.08;;;;;;;;;;5030238;28;20048;-60
2022/02/04 01:44:46;;;;;;;52.35;19.52;;;;;;;;;;5025197;28;20021;-60
2022/02/04 01:47:13;;;;;;;52.95;19.70;;;;;;;;;;5044796;28;20155;-58
2022/02/04 01:49:40;;;;;;;52.78;18.23;;;;;;;;;;5039885;28;20032;-59
2022/02/04 01:52:09;;;;;;;49.88;17.33;;;;;;;;;;5045775;28;20047;-59
2022/02/04 01:54:35;;;;;;;56.65;20.23;;;;;;;;;;5028937;28;20085;-59
2022/02/04 01:57:08;;;;;;;50.33;18.90;;;;;;;;;;5043202;28;20036;-58
2022/02/04 01:59:38;;;;;;;46.10;17.33;;;;;;;;;;5037159;28;20127;-60
2022/02/04 02:02:07;;;;;;;51.75;18.17;;;;;;;;;;5044409;28;20032;-59
2022/02/04 02:04:35;;;;;;;43.72;16.60;;;;;;;;;;5043647;28;20471;-60
2022/02/04 02:07:08;;;;;;;57.95;19.15;;;;;;;;;;5044311;28;20041;-60
2022/02/04 02:09:59;;;;;;;50.22;18.23;;;;;;;;;;5044531;28;20028;-60
2022/02/04 02:12:26;;;;;;;44.33;17.05;;;;;;;;;;5044163;28;20436;-60
2022/02/04 02:15:04;;;;;;;50.78;19.23;;;;;;;;;;5027967;28;20098;-60
2022/02/04 02:40:03;;;;;;;49.83;15.82;;;;;;;;;;5044053;28;20115;-60
2022/02/04 02:50:20;;;;;;;42.08;16.90;;;;;;;;;;5041450;28;20055;-60
2022/02/04 02:55:48;;;;;;;45.83;16.70;;;;;;;;;;5041588;28;20318;-60
2022/02/04 02:58:22;;;;;;;47.78;16.30;;;;;;;;;;5031932;28;20105;-61
2022/02/04 03:03:28;;;;;;;35.88;15.63;;;;;;;;;;5042504;28;20045;-59
2022/02/04 03:05:54;;;;;;;47.70;16.00;;;;;;;;;;5044923;28;22115;-60
2022/02/04 03:08:21;;;;;;;48.72;17.17;;;;;;;;;;5042692;28;20082;-61
2022/02/04 03:10:54;;;;;;;43.53;16.10;;;;;;;;;;5040162;28;20029;-59
2022/02/04 03:13:24;;;;;;;42.42;15.65;;;;;;;;;;5026538;28;20070;-59
2022/02/04 03:15:59;;;;;;;42.13;16.50;;;;;;;;;;5024431;28;20040;-61
2022/02/04 03:18:27;;;;;;;39.22;16.42;;;;;;;;;;5043703;28;20388;-60
2022/02/04 03:20:58;;;;;;;45.08;18.27;;;;;;;;;;5042101;28;20056;-60
2022/02/04 03:23:30;;;;;;;49.60;16.67;;;;;;;;;;5045426;28;20475;-60
2022/02/04 03:26:08;;;;;;;45.60;17.58;;;;;;;;;;5026522;28;20590;-61
2022/02/04 03:28:34;;;;;;;40.85;16.80;;;;;;;;;;5038485;28;20068;-59
2022/02/04 03:31:06;;;;;;;43.90;15.95;;;;;;;;;;5042047;28;20017;-59
2022/02/04 03:33:32;;;;;;;39.60;14.60;;;;;;;;;;5044226;28;20044;-59
2022/02/04 03:36:00;;;;;;;42.47;16.48;;;;;;;;;;5024666;28;20151;-60
2022/02/04 03:38:30;;;;;;;40.70;16.52;;;;;;;;;;5042809;28;20033;-61
2022/02/04 03:40:55;;;;;;;45.58;17.65;;;;;;;;;;5037650;28;20067;-59
2022/02/04 03:43:21;;;;;;;41.42;16.33;;;;;;;;;;5037038;28;20583;-59
2022/02/04 03:45:52;;;;;;;48.10;15.30;;;;;;;;;;5041644;28;20033;-59
2022/02/04 03:48:17;;;;;;;41.08;16.40;;;;;;;;;;5039598;28;20157;-60
2022/02/04 03:50:43;;;;;;;44.63;16.17;;;;;;;;;;5039186;28;21870;-61
2022/02/04 03:53:12;;;;;;;45.72;15.55;;;;;;;;;;5025464;28;20024;-61
2022/02/04 03:55:37;;;;;;;43.17;16.10;;;;;;;;;;5040094;28;20083;-60
2022/02/04 03:58:10;;;;;;;40.83;15.50;;;;;;;;;;5027504;28;20550;-60
2022/02/04 04:00:36;;;;;;;42.03;16.45;;;;;;;;;;5060108;28;20132;-60
2022/02/04 04:03:06;;;;;;;41.30;16.25;;;;;;;;;;5041041;28;20020;-60
2022/02/04 04:05:42;;;;;;;45.67;17.17;;;;;;;;;;5042246;28;20063;-60
2022/02/04 04:08:10;;;;;;;43.35;16.35;;;;;;;;;;5039942;28;21627;-60
2022/02/04 04:10:41;;;;;;;44.85;15.68;;;;;;;;;;5040101;28;20036;-60
2022/02/04 04:13:09;;;;;;;38.70;15.50;;;;;;;;;;5043236;28;20493;-61
2022/02/04 04:15:35;;;;;;;44.38;16.38;;;;;;;;;;5023052;28;20700;-60
2022/02/04 04:18:00;;;;;;;38.65;15.30;;;;;;;;;;5041248;28;20035;-61
2022/02/04 04:20:27;;;;;;;48.17;17.60;;;;;;;;;;5038000;28;20032;-60
2022/02/04 04:22:58;;;;;;;45.05;16.08;;;;;;;;;;5042045;28;20074;-61
2022/02/04 04:25:23;;;;;;;40.78;15.65;;;;;;;;;;5043676;28;20028;-58
2022/02/04 04:27:50;;;;;;;41.20;15.13;;;;;;;;;;5043399;28;20563;-59
2022/02/04 04:30:17;;;;;;;51.83;17.35;;;;;;;;;;5041219;28;20031;-61
2022/02/04 04:32:45;;;;;;;42.35;15.13;;;;;;;;;;5042274;28;20043;-60
2022/02/04 04:35:11;;;;;;;41.85;15.35;;;;;;;;;;5037067;28;20357;-60
2022/02/04 04:37:43;;;;;;;49.95;15.90;;;;;;;;;;5039592;28;20046;-61
2022/02/04 05:29:17;;;;;;;33.17;12.07;;;;;;;;;;5039006;28;20040;-60
2022/02/04 05:31:44;;;;;;;36.88;11.75;;;;;;;;;;5039048;28;20024;-60
2022/02/04 05:34:10;;;;;;;35.30;13.52;;;;;;;;;;5039931;28;20399;-61
2022/02/04 05:36:46;;;;;;;28.05;11.63;;;;;;;;;;5040970;28;20028;-60
2022/02/04 05:39:13;;;;;;;35.58;13.45;;;;;;;;;;5041268;28;20044;-60
2022/02/04 05:41:43;;;;;;;35.53;11.48;;;;;;;;;;5007985;28;20044;-61
2022/02/04 05:44:13;;;;;;;38.03;13.00;;;;;;;;;;5020671;28;20033;-61
2022/02/04 05:46:53;;;;;;;31.42;12.43;;;;;;;;;;5038575;28;20082;-61
2022/02/04 05:49:21;;;;;;;38.90;13.20;;;;;;;;;;5043044;28;20064;-62
2022/02/04 05:52:14;;;;;;;26.80;11.38;;;;;;;;;;5042858;28;20021;-60
2022/02/04 05:54:56;;;;;;;31.48;12.52;;;;;;;;;;5042359;28;20462;-61
2022/02/04 05:57:36;;;;;;;41.15;12.75;;;;;;;;;;5038302;28;20123;-61
2022/02/04 06:00:30;;;;;;;40.97;13.00;;;;;;;;;;5027053;28;20488;-61
2022/02/04 06:14:10;;;;;;;32.40;12.67;;;;;;;;;;5042255;28;20158;-64
2022/02/04 06:22:19;;;;;;;31.23;11.73;;;;;;;;;;5047333;28;20098;-61
2022/02/04 06:24:49;;;;;;;30.95;10.10;;;;;;;;;;5031366;28;20029;-62
2022/02/04 06:27:15;;;;;;;31.50;11.68;;;;;;;;;;5046989;28;20060;-62
2022/02/04 06:29:43;;;;;;;29.15;11.85;;;;;;;;;;5062181;28;20131;-63
2022/02/04 06:32:13;;;;;;;35.20;10.20;;;;;;;;;;5026503;28;20028;-62
2022/02/04 06:34:39;;;;;;;34.95;10.13;;;;;;;;;;5025724;28;20050;-62
2022/02/04 06:37:06;;;;;;;33.30;10.30;;;;;;;;;;5029533;28;20025;-62
2022/02/04 06:39:32;;;;;;;26.58;9.60;;;;;;;;;;5041289;28;20103;-65
2022/02/04 06:41:59;;;;;;;36.17;10.45;;;;;;;;;;5028677;28;20021;-62
2022/02/04 06:44:25;;;;;;;32.03;9.52;;;;;;;;;;5044427;28;20068;-62
2022/02/04 06:46:53;;;;;;;25.08;9.52;;;;;;;;;;5043540;28;20092;-63
2022/02/04 06:49:20;;;;;;;32.55;9.95;;;;;;;;;;5044671;28;20103;-63
2022/02/04 06:51:50;;;;;;;30.63;10.15;;;;;;;;;;5042389;28;20147;-63
2022/02/04 06:54:16;;;;;;;31.05;9.90;;;;;;;;;;5008981;28;20093;-62
2022/02/04 06:56:46;;;;;;;36.75;10.07;;;;;;;;;;5046014;28;21549;-63
2022/02/04 06:59:17;;;;;;;29.33;9.52;;;;;;;;;;5043058;28;20128;-62
2022/02/04 07:01:45;;;;;;;26.55;9.20;;;;;;;;;;5042117;28;20037;-62
2022/02/04 07:04:16;;;;;;;25.27;8.95;;;;;;;;;;5041887;28;20128;-63
2022/02/04 07:06:52;;;;;;;23.17;8.93;;;;;;;;;;5044748;28;21924;-63
2022/02/04 07:09:34;;;;;;;33.80;9.25;;;;;;;;;;5012411;28;20756;-61
2022/02/04 07:17:52;;;;;;;24.90;8.95;;;;;;;;;;5045655;28;20661;-62
2022/02/04 07:20:11;;;;;;;22.38;8.77;;;;;;;;;;5046840;28;20074;-61
2022/02/04 07:22:39;;;;;;;26.60;8.65;;;;;;;;;;5042667;28;20094;-63
2022/02/04 07:25:10;;;;;;;22.40;8.43;;;;;;;;;;5044253;28;20047;-61
2022/02/04 07:27:40;;;;;;;22.65;8.43;;;;;;;;;;5046700;28;20120;-61
2022/02/04 07:30:08;;;;;;;23.35;7.38;;;;;;;;;;5044692;28;20086;-61
2022/02/04 07:33:02;;;;;;;27.92;9.93;;;;;;;;;;5028559;28;20034;-64
2022/02/04 07:43:17;;;;;;;19.77;7.70;;;;;;;;;;5046191;28;20103;-62
2022/02/04 07:45:44;;;;;;;21.98;9.10;;;;;;;;;;5044004;28;20283;-61
2022/02/04 07:48:11;;;;;;;22.50;7.95;;;;;;;;;;5042362;28;20041;-62
2022/02/04 07:50:44;;;;;;;16.63;8.05;;;;;;;;;;5041763;28;20032;-61
2022/02/04 07:53:17;;;;;;;27.23;9.00;;;;;;;;;;5044515;28;21562;-62
2022/02/04 07:55:43;;;;;;;17.60;7.55;;;;;;;;;;5042867;28;20134;-63
2022/02/04 07:58:10;;;;;;;24.27;9.13;;;;;;;;;;5027983;28;20128;-61
2022/02/04 08:00:40;;;;;;;18.70;8.25;;;;;;;;;;5046318;28;20444;-62
2022/02/04 08:03:45;;;;;;;23.25;8.57;;;;;;;;;;5044127;28;20032;-62
2022/02/04 08:06:07;;;;;;;22.17;9.38;;;;;;;;;;5044885;28;20083;-64
2022/02/04 08:08:54;;;;;;;19.23;9.25;;;;;;;;;;5044538;28;20029;-61
2022/02/04 08:29:49;;;;;;;18.50;6.50;;;;;;;;;;5043290;28;20028;-62
2022/02/04 08:37:58;;;;;;;11.32;5.60;;;;;;;;;;5043459;28;20044;-62
2022/02/04 09:02:28;;;;;;;11.85;4.20;;;;;;;;;;5039823;28;20037;-65
2022/02/04 09:04:58;;;;;;;10.95;4.13;;;;;;;;;;5041947;28;20056;-64
2022/02/04 09:07:32;;;;;;;10.05;4.30;;;;;;;;;;5044222;28;20059;-62
2022/02/04 09:10:10;;;;;;;8.55;4.10;;;;;;;;;;5041952;28;20966;-64
2022/02/04 09:20:30;;;;;;;10.88;4.07;;;;;;;;;;5044174;28;20072;-62
2022/02/04 09:22:58;;;;;;;6.80;4.00;;;;;;;;;;5041692;28;20131;-62
2022/02/04 09:25:25;;;;;;;11.93;4.78;;;;;;;;;;5044205;28;20743;-64
2022/02/04 09:27:51;;;;;;;17.50;4.90;;;;;;;;;;5043909;28;20020;-62
2022/02/04 09:30:20;;;;;;;18.70;5.35;;;;;;;;;;5042713;28;20039;-65
2022/02/04 09:32:49;;;;;;;8.40;4.47;;;;;;;;;;5044365;28;20036;-63
2022/02/04 09:35:21;;;;;;;9.15;5.53;;;;;;;;;;5022260;28;20020;-63
2022/02/04 09:37:48;;;;;;;16.58;5.55;;;;;;;;;;5026474;28;20132;-62
2022/02/04 09:40:18;;;;;;;11.90;5.78;;;;;;;;;;5041031;28;20054;-63
2022/02/04 09:42:47;;;;;;;10.02;6.22;;;;;;;;;;5041963;28;20043;-63
2022/02/04 09:45:18;;;;;;;10.43;6.00;;;;;;;;;;5041343;28;20108;-67
2022/02/04 09:48:01;;;;;;;13.73;6.72;;;;;;;;;;5045044;28;20036;-62
2022/02/04 09:50:31;;;;;;;20.13;7.55;;;;;;;;;;5020883;28;20115;-62
2022/02/04 10:09:45;;;;;;;19.52;8.25;;;;;;;;;;5045747;28;20098;-62
2022/02/04 10:12:32;;;;;;;13.43;7.90;;;;;;;;;;5046267;28;20381;-61
2022/02/04 10:18:00;;;;;;;18.27;8.75;;;;;;;;;;5045738;28;21608;-64
2022/02/04 10:20:28;;;;;;;19.80;6.93;;;;;;;;;;5045629;28;20148;-63
2022/02/04 10:22:53;;;;;;;16.02;7.18;;;;;;;;;;5017230;28;20410;-62
2022/02/04 10:25:21;;;;;;;14.35;8.10;;;;;;;;;;5025898;28;20033;-63
2022/02/04 10:27:52;;;;;;;13.30;7.18;;;;;;;;;;5042103;28;20313;-62
2022/02/04 10:30:22;;;;;;;13.82;7.03;;;;;;;;;;5024621;28;20461;-60
2022/02/04 10:32:50;;;;;;;17.15;7.47;;;;;;;;;;5040421;28;20720;-60
2022/02/04 10:35:27;;;;;;;18.65;6.60;;;;;;;;;;5063156;28;20037;-61
2022/02/04 10:38:14;;;;;;;20.25;7.53;;;;;;;;;;5029460;28;20047;-61
2022/02/04 10:43:36;;;;;;;14.02;6.43;;;;;;;;;;5041076;28;20589;-62
2022/02/04 10:54:08;;;;;;;10.80;5.72;;;;;;;;;;5039441;28;20110;-61
2022/02/04 11:04:33;;;;;;;6.90;5.05;;;;;;;;;;5043840;28;20044;-61
2022/02/04 11:07:20;;;;;;;13.27;4.80;;;;;;;;;;5041296;28;22061;-60
2022/02/04 11:21:58;;;;;;;9.57;5.30;;;;;;;;;;5043377;28;20020;-61
2022/02/04 11:32:17;;;;;;;6.38;4.85;;;;;;;;;;5040516;28;20096;-62
2022/02/04 11:52:26;;;;;;;6.25;3.20;;;;;;;;;;5042949;28;20142;-63
2022/02/04 11:54:54;;;;;;;4.28;3.22;;;;;;;;;;5039984;28;20619;-62
2022/02/04 11:57:21;;;;;;;5.78;3.78;;;;;;;;;;5042943;28;20221;-63
2022/02/04 11:59:50;;;;;;;11.20;4.10;;;;;;;;;;5040533;28;20036;-64
2022/02/04 12:02:35;;;;;;;9.93;3.65;;;;;;;;;;5024576;28;20609;-62
2022/02/04 12:05:03;;;;;;;8.27;3.42;;;;;;;;;;5043928;28;20131;-61
2022/02/04 12:07:34;;;;;;;6.90;3.50;;;;;;;;;;5027745;28;20066;-63
2022/02/04 12:10:03;;;;;;;6.85;3.80;;;;;;;;;;5046176;28;20040;-65
2022/02/04 12:12:51;;;;;;;5.93;3.30;;;;;;;;;;5043484;28;20480;-64
2022/02/04 12:15:25;;;;;;;12.52;4.38;;;;;;;;;;5061140;28;20032;-64
2022/02/04 12:17:51;;;;;;;6.60;3.70;;;;;;;;;;5043070;28;20050;-62
2022/02/04 12:20:42;;;;;;;5.57;3.03;;;;;;;;;;5045801;28;20090;-67
2022/02/04 12:23:08;;;;;;;7.40;2.85;;;;;;;;;;5042536;28;20040;-62
2022/02/04 12:25:55;;;;;;;8.57;3.22;;;;;;;;;;5043652;28;20813;-63
2022/02/04 12:28:41;;;;;;;5.53;3.88;;;;;;;;;;5044903;28;20040;-64
2022/02/04 12:31:11;;;;;;;7.80;3.75;;;;;;;;;;5033198;28;20039;-62
2022/02/04 12:33:39;;;;;;;8.77;4.10;;;;;;;;;;5026474;28;20049;-65
2022/02/04 12:36:06;;;;;;;11.80;3.70;;;;;;;;;;5043754;28;20039;-63
2022/02/04 12:38:34;;;;;;;5.20;3.55;;;;;;;;;;5038183;28;20052;-62
2022/02/04 12:40:59;;;;;;;8.25;3.30;;;;;;;;;;5041620;28;20044;-63
2022/02/04 12:43:25;;;;;;;4.55;3.15;;;;;;;;;;5024219;28;20085;-62
2022/02/04 12:45:50;;;;;;;9.02;3.28;;;;;;;;;;5057051;28;20111;-61
2022/02/04 12:48:18;;;;;;;10.43;3.38;;;;;;;;;;5030129;28;20029;-60
2022/02/04 12:50:56;;;;;;;5.57;3.15;;;;;;;;;;5044670;28;20036;-62
2022/02/04 12:53:28;;;;;;;3.35;2.38;;;;;;;;;;5043346;28;20024;-60
2022/02/04 12:56:34;;;;;;;13.98;2.90;;;;;;;;;;5028510;28;20071;-62
2022/02/04 12:59:08;;;;;;;9.55;2.85;;;;;;;;;;5040513;28;20102;-60
2022/02/04 13:07:31;;;;;;;5.47;2.60;;;;;;;;;;5040306;28;20048;-59
2022/02/04 13:09:57;;;;;;;5.22;2.00;;;;;;;;;;5038663;28;20035;-61
2022/02/04 13:15:58;;;;;;;1.88;0.45;;;;;;;;;;5042970;28;20125;-61
2022/02/04 13:18:29;;;;;;;16.55;0.75;;;;;;;;;;5021249;28;20021;-64
2022/02/04 13:20:57;;;;;;;7.85;0.77;;;;;;;;;;5039829;28;20107;-62
2022/02/04 13:23:28;;;;;;;12.55;0.65;;;;;;;;;;5018806;28;20046;-63
2022/02/04 13:25:57;;;;;;;8.98;1.55;;;;;;;;;;5037351;28;20097;-60
2022/02/04 13:28:32;;;;;;;1.50;0.22;;;;;;;;;;5058621;28;20039;-61
2022/02/04 13:31:10;;;;;;;1.20;0.30;;;;;;;;;;5041060;28;20114;-61
2022/02/04 13:33:40;;;;;;;2.40;0.38;;;;;;;;;;5041401;28;20216;-60
2022/02/04 13:41:23;;;;;;;5.03;0.15;;;;;;;;;;5044765;28;20089;-60
2022/02/04 13:46:37;;;;;;;2.97;0.30;;;;;;;;;;5042386;28;20027;-61
2022/02/04 13:49:17;;;;;;;6.65;0.30;;;;;;;;;;5041497;28;20115;-62
2022/02/04 13:52:02;;;;;;;0.20;0.20;;;;;;;;;;5029025;28;20874;-61
2022/02/04 13:54:54;;;;;;;0.05;0.03;;;;;;;;;;5040705;28;20691;-61
2022/02/04 13:57:45;;;;;;;2.33;0.10;;;;;;;;;;5042547;28;20101;-62
2022/02/04 14:00:28;;;;;;;5.93;0.28;;;;;;;;;;5040341;28;20921;-62
2022/02/04 14:03:11;;;;;;;2.83;0.40;;;;;;;;;;5040019;28;20033;-61
2022/02/04 14:05:46;;;;;;;2.10;0.30;;;;;;;;;;5044141;28;20028;-61
2022/02/04 14:08:16;;;;;;;1.60;0.10;;;;;;;;;;5043931;28;20093;-61
2022/02/04 14:10:55;;;;;;;3.40;0.25;;;;;;;;;;5041594;28;20136;-61
2022/02/04 14:13:28;;;;;;;4.85;0.28;;;;;;;;;;5040235;28;20037;-62
2022/02/04 14:15:55;;;;;;;0.00;0.00;;;;;;;;;;5038437;28;20054;-62
2022/02/04 14:18:23;;;;;;;3.10;0.00;;;;;;;;;;5040934;28;20127;-62
2022/02/04 14:20:49;;;;;;;2.53;0.50;;;;;;;;;;5022544;28;20043;-62
2022/02/04 14:23:19;;;;;;;0.30;0.20;;;;;;;;;;5040863;28;20044;-62
2022/02/04 14:25:47;;;;;;;1.75;0.08;;;;;;;;;;5039213;28;20085;-62
2022/02/04 14:28:22;;;;;;;5.57;0.10;;;;;;;;;;5026015;28;20029;-60
2022/02/04 14:30:58;;;;;;;1.08;0.10;;;;;;;;;;5041783;28;20460;-60
2022/02/04 14:37:21;;;;;;;2.13;0.15;;;;;;;;;;5042974;28;20188;-62
2022/02/04 15:01:33;;;;;;;0.20;0.20;;;;;;;;;;5018748;28;20044;-62
2022/02/04 15:06:33;;;;;;;2.00;0.28;;;;;;;;;;5037880;28;20072;-61
2022/02/04 15:08:59;;;;;;;;;;;;;;;;;;5030201;28;20044;-61
2022/02/04 15:11:35;;;;;;;1.45;0.10;;;;;;;;;;5043310;28;20934;-62
2022/02/04 15:14:05;;;;;;;0.15;0.15;;;;;;;;;;5042197;28;20116;-61
2022/02/04 15:16:33;;;;;;;0.55;0.03;;;;;;;;;;5043776;28;20044;-63
2022/02/04 15:19:04;;;;;;;6.13;0.20;;;;;;;;;;5043026;28;20114;-61
2022/02/04 15:21:29;;;;;;;2.60;0.32;;;;;;;;;;5043004;28;20848;-61
2022/02/04 15:23:55;;;;;;;0.20;0.08;;;;;;;;;;5042678;28;20078;-62
2022/02/04 15:26:27;;;;;;;3.50;0.32;;;;;;;;;;5042468;28;20933;-62
2022/02/04 15:33:48;;;;;;;2.13;0.38;;;;;;;;;;5044127;28;20236;-62
2022/02/04 15:36:25;;;;;;;3.25;0.60;;;;;;;;;;5043912;28;20028;-60
2022/02/04 15:38:51;;;;;;;0.30;0.20;;;;;;;;;;5042169;28;20040;-61
2022/02/04 15:41:17;;;;;;;8.30;1.15;;;;;;;;;;5061648;28;20036;-61
2022/02/04 15:43:48;;;;;;;1.92;0.25;;;;;;;;;;5041996;28;20475;-61
2022/02/04 15:49:14;;;;;;;9.13;0.63;;;;;;;;;;5023124;28;20059;-61
2022/02/04 15:57:11;;;;;;;4.50;0.40;;;;;;;;;;5042491;28;20721;-60
2022/02/04 16:04:47;;;;;;;0.50;0.28;;;;;;;;;;5036501;28;20049;-60
2022/02/04 16:07:18;;;;;;;2.08;0.28;;;;;;;;;;5040968;28;20059;-62
2022/02/04 16:09:48;;;;;;;7.38;0.70;;;;;;;;;;5044379;28;20141;-62
2022/02/04 16:15:31;;;;;;;4.55;0.63;;;;;;;;;;5021132;28;20093;-62
2022/02/04 16:18:03;;;;;;;3.35;0.40;;;;;;;;;;5043972;28;20033;-61
2022/02/04 16:23:46;;;;;;;5.55;0.50;;;;;;;;;;5040706;28;20045;-61
2022/02/04 16:28:51;;;;;;;0.10;0.10;;;;;;;;;;5038381;28;20348;-62
2022/02/04 16:31:17;;;;;;;2.53;0.32;;;;;;;;;;5038268;28;20033;-60
2022/02/04 16:33:45;;;;;;;3.15;0.43;;;;;;;;;;5041310;28;20032;-62
2022/02/04 16:36:21;;;;;;;4.57;0.55;;;;;;;;;;5040740;28;20055;-62
2022/02/04 16:38:54;;;;;;;6.38;0.45;;;;;;;;;;5041049;28;20757;-60
2022/02/04 16:41:26;;;;;;;3.90;0.40;;;;;;;;;;5038129;28;20127;-61
2022/02/04 16:43:54;;;;;;;6.07;0.50;;;;;;;;;;5041837;28;20041;-60
2022/02/04 16:46:22;;;;;;;0.93;0.45;;;;;;;;;;5035603;28;20128;-61
2022/02/04 16:48:47;;;;;;;11.77;0.82;;;;;;;;;;5043065;28;20028;-61
2022/02/04 16:51:13;;;;;;;11.30;1.20;;;;;;;;;;5041827;28;20491;-62
2022/02/04 16:53:43;;;;;;;5.30;0.98;;;;;;;;;;5038281;28;20039;-61
2022/02/04 16:56:11;;;;;;;4.45;0.75;;;;;;;;;;5041148;28;20040;-60
2022/02/04 16:58:38;;;;;;;3.95;0.43;;;;;;;;;;5041946;28;20047;-61
2022/02/04 17:01:06;;;;;;;5.00;0.82;;;;;;;;;;5038543;28;20036;-61
2022/02/04 17:03:35;;;;;;;4.22;0.52;;;;;;;;;;5039510;28;20044;-61
2022/02/04 17:06:07;;;;;;;3.25;0.52;;;;;;;;;;5037617;28;20040;-66
2022/02/04 17:08:48;;;;;;;3.72;0.60;;;;;;;;;;5043280;28;20040;-60
2022/02/04 17:11:21;;;;;;;5.78;1.08;;;;;;;;;;5040142;28;20124;-63
2022/02/04 17:13:50;;;;;;;1.77;0.50;;;;;;;;;;5043226;28;20627;-62
2022/02/04 17:16:18;;;;;;;6.25;0.35;;;;;;;;;;5040626;28;20155;-63
2022/02/04 17:18:45;;;;;;;0.98;0.40;;;;;;;;;;5041628;28;20024;-61
2022/02/04 17:21:11;;;;;;;10.98;1.15;;;;;;;;;;5041008;28;20503;-62
2022/02/04 17:23:51;;;;;;;4.93;0.25;;;;;;;;;;5041075;28;20091;-62
2022/02/04 17:26:21;;;;;;;2.60;0.68;;;;;;;;;;5041349;28;20032;-64
2022/02/04 17:28:49;;;;;;;4.95;0.43;;;;;;;;;;5040425;28;20862;-64
2022/02/04 17:31:20;;;;;;;5.72;0.60;;;;;;;;;;5041600;28;20021;-61
2022/02/04 17:33:48;;;;;;;1.98;0.43;;;;;;;;;;5041387;28;20033;-65
2022/02/04 17:36:13;;;;;;;2.80;0.80;;;;;;;;;;5024239;28;20033;-64
2022/02/04 17:38:43;;;;;;;6.95;0.52;;;;;;;;;;5041296;28;20028;-60
2022/02/04 17:41:15;;;;;;;5.72;1.02;;;;;;;;;;5040150;28;20344;-63
2022/02/04 17:43:47;;;;;;;3.50;0.45;;;;;;;;;;5021026;28;20167;-63
2022/02/04 17:46:15;;;;;;;6.32;0.95;;;;;;;;;;5026309;28;20980;-63
2022/02/04 17:48:53;;;;;;;1.65;0.60;;;;;;;;;;5024997;28;20032;-63
2022/02/04 17:51:36;;;;;;;4.60;0.60;;;;;;;;;;5028055;28;20047;-62
2022/02/04 17:54:08;;;;;;;5.65;0.93;;;;;;;;;;5041509;28;20028;-64
2022/02/04 17:57:34;;;;;;;10.82;0.77;;;;;;;;;;5041987;28;20097;-60
2022/02/04 18:02:12;;;;;;;8.82;0.95;;;;;;;;;;5038398;28;20547;-59
2022/02/04 18:07:33;;;;;;;4.57;0.43;;;;;;;;;;5019725;28;20044;-63
2022/02/04 18:10:01;;;;;;;5.43;0.68;;;;;;;;;;5041031;28;20127;-62
2022/02/04 18:12:36;;;;;;;10.38;1.02;;;;;;;;;;5044913;28;20225;-61
2022/02/04 18:15:06;;;;;;;4.68;0.80;;;;;;;;;;5046745;28;20100;-60
2022/02/04 18:17:32;;;;;;;6.22;0.77;;;;;;;;;;5029891;28;20029;-61
2022/02/04 18:20:02;;;;;;;7.97;1.42;;;;;;;;;;5043758;28;20025;-60
2022/02/04 18:22:28;;;;;;;8.25;1.52;;;;;;;;;;5043282;28;20021;-59
2022/02/04 18:24:54;;;;;;;11.90;1.02;;;;;;;;;;5044225;28;20036;-60
2022/02/04 18:27:22;;;;;;;9.18;1.92;;;;;;;;;;5025532;28;20079;-60
2022/02/04 18:29:53;;;;;;;9.48;1.63;;;;;;;;;;5043120;28;20484;-61
2022/02/04 18:32:22;;;;;;;7.07;1.92;;;;;;;;;;5045547;28;20036;-61
2022/02/04 18:34:48;;;;;;;11.77;1.23;;;;;;;;;;5030493;28;20439;-61
2022/02/04 18:37:18;;;;;;;7.35;1.40;;;;;;;;;;5029249;28;20378;-61
2022/02/04 18:40:11;;;;;;;16.17;1.77;;;;;;;;;;5044201;28;20036;-63
2022/02/04 18:45:33;;;;;;;3.60;1.30;;;;;;;;;;5038206;28;20041;-64
2022/02/04 18:48:04;;;;;;;13.98;1.58;;;;;;;;;;5045138;28;20090;-64
2022/02/04 18:58:15;;;;;;;0.90;0.30;;;;;;;;;;5042567;28;20040;-63
2022/02/04 19:00:51;;;;;;;4.97;1.25;;;;;;;;;;5044337;28;20115;-66
2022/02/04 19:03:26;;;;;;;1.85;0.52;;;;;;;;;;5046815;28;20115;-63
2022/02/04 19:06:12;;;;;;;10.38;0.65;;;;;;;;;;5046233;28;20045;-63
2022/02/04 19:08:49;;;;;;;3.03;0.70;;;;;;;;;;5042353;28;20163;-61
2022/02/04 19:11:20;;;;;;;6.90;1.20;;;;;;;;;;5046083;28;20040;-66
2022/02/04 19:13:59;;;;;;;3.95;0.77;;;;;;;;;;5046850;28;20028;-61
2022/02/04 19:17:11;;;;;;;3.47;0.85;;;;;;;;;;5043377;28;20039;-63
2022/02/04 19:25:23;;;;;;;14.13;1.30;;;;;;;;;;5046451;28;20984;-61
2022/02/04 19:27:57;;;;;;;6.68;1.02;;;;;;;;;;5045373;28;20028;-61
2022/02/04 19:30:26;;;;;;;4.10;0.77;;;;;;;;;;5047607;28;20848;-62
2022/02/04 19:32:52;;;;;;;7.80;0.75;;;;;;;;;;5042478;28;20116;-64
2022/02/04 19:35:23;;;;;;;11.27;0.80;;;;;;;;;;5045176;28;20116;-63
2022/02/04 19:37:52;;;;;;;5.85;1.00;;;;;;;;;;5045626;28;20074;-63
2022/02/04 19:40:23;;;;;;;6.00;1.05;;;;;;;;;;5042523;28;20028;-63
2022/02/04 19:42:51;;;;;;;13.73;1.33;;;;;;;;;;5040808;28;20081;-64
2022/02/04 19:45:28;;;;;;;4.90;1.08;;;;;;;;;;5043206;28;20037;-62
2022/02/04 19:48:03;;;;;;;11.77;0.93;;;;;;;;;;5044749;28;20037;-62
2022/02/04 20:07:09;;;;;;;12.10;0.88;;;;;;;;;;5039591;28;20043;-62
2022/02/04 20:25:55;;;;;;;7.53;1.65;;;;;;;;;;5042341;28;20167;-61
2022/02/04 20:28:24;;;;;;;13.85;1.90;;;;;;;;;;5046046;28;20032;-62
2022/02/04 20:30:52;;;;;;;5.30;1.70;;;;;;;;;;5043434;28;20036;-61
2022/02/04 20:33:26;;;;;;;4.95;1.42;;;;;;;;;;5044321;28;20055;-64
2022/02/04 20:35:54;;;;;;;10.77;1.80;;;;;;;;;;5043518;28;20056;-61
2022/02/04 20:38:31;;;;;;;7.25;1.40;;;;;;;;;;5043136;28;20052;-61
2022/02/04 20:40:59;;;;;;;7.00;1.27;;;;;;;;;;5045192;28;20368;-66
2022/02/04 20:43:30;;;;;;;8.98;1.52;;;;;;;;;;5042252;28;20024;-62
2022/02/04 20:45:56;;;;;;;10.18;2.22;;;;;;;;;;5041971;28;20037;-61
2022/02/04 20:48:31;;;;;;;13.13;1.77;;;;;;;;;;5043452;28;20090;-63
2022/02/04 20:50:57;;;;;;;7.13;1.60;;;;;;;;;;5041527;28;20025;-62
2022/02/04 20:53:25;;;;;;;16.23;2.35;;;;;;;;;;5045074;28;20509;-64
2022/02/04 20:55:53;;;;;;;12.05;1.67;;;;;;;;;;5028807;28;20124;-64
2022/02/04 20:58:24;;;;;;;15.35;1.75;;;;;;;;;;5044260;28;21061;-67
2022/02/04 21:00:52;;;;;;;13.18;2.08;;;;;;;;;;5038688;28;20035;-63
2022/02/04 21:03:25;;;;;;;11.57;1.60;;;;;;;;;;5038389;28;20051;-63
2022/02/04 21:06:01;;;;;;;4.78;1.27;;;;;;;;;;5042417;28;20032;-62
2022/02/04 21:14:05;;;;;;;14.75;2.05;;;;;;;;;;5044855;28;20044;-62
2022/02/04 21:16:32;;;;;;;10.68;1.90;;;;;;;;;;5027962;28;20124;-66
2022/02/04 21:19:01;;;;;;;9.75;2.17;;;;;;;;;;5042386;28;21061;-62
2022/02/04 21:21:29;;;;;;;12.70;3.17;;;;;;;;;;5043758;28;20116;-62
2022/02/04 21:23:58;;;;;;;16.85;2.80;;;;;;;;;;5045312;28;20032;-63
2022/02/04 21:26:26;;;;;;;11.43;2.25;;;;;;;;;;5027172;28;20048;-62
2022/02/04 21:28:51;;;;;;;14.25;2.78;;;;;;;;;;5043320;28;20495;-63
2022/02/04 21:31:17;;;;;;;12.90;2.92;;;;;;;;;;5041356;28;20170;-61
2022/02/04 21:39:17;;;;;;;18.27;3.05;;;;;;;;;;5036166;28;20033;-62
2022/02/04 21:41:45;;;;;;;16.35;3.75;;;;;;;;;;5035297;28;20040;-64
2022/02/04 21:44:12;;;;;;;13.57;2.67;;;;;;;;;;5044099;28;20039;-65
2022/02/04 21:46:49;;;;;;;9.05;1.92;;;;;;;;;;5028728;28;20407;-63
2022/02/04 21:49:17;;;;;;;13.60;2.22;;;;;;;;;;5046921;28;20024;-61
2022/02/04 21:51:47;;;;;;;10.25;1.50;;;;;;;;;;5045229;28;20520;-63
2022/02/04 21:54:15;;;;;;;6.75;1.60;;;;;;;;;;5028907;28;20056;-63
2022/02/04 21:56:42;;;;;;;2.85;1.70;;;;;;;;;;5047615;28;20041;-61
2022/02/04 21:59:13;;;;;;;11.85;1.02;;;;;;;;;;5043447;28;20032;-63
2022/02/04 22:01:41;;;;;;;2.95;0.88;;;;;;;;;;5044862;28;20047;-62
2022/02/04 22:04:11;;;;;;;7.85;1.15;;;;;;;;;;5044924;28;20024;-62
2022/02/04 22:06:36;;;;;;;16.85;1.55;;;;;;;;;;5044795;28;20025;-62
2022/02/04 22:12:24;;;;;;;13.30;1.30;;;;;;;;;;5046733;28;20379;-60
2022/02/04 22:17:57;;;;;;;8.77;0.88;;;;;;;;;;5031107;28;20321;-61
2022/02/04 22:23:10;;;;;;;7.45;1.20;;;;;;;;;;5028116;28;20076;-63
2022/02/04 22:25:36;;;;;;;4.55;1.30;;;;;;;;;;5024163;28;20605;-61
2022/02/04 22:28:06;;;;;;;5.45;1.10;;;;;;;;;;5043701;28;20021;-62